sensor_id;sensor_type;location;lat;lon;timestamp;P1;durP1;ratioP1;P2;durP2;ratioP2
9496;SDS011;4786;51.270;4.456;2022-09-12T00:00:01;7.73;;;6.90;;
9496;SDS011;4786;51.270;4.456;2022-09-12T00:02:29;8.07;;;7.27;;
9496;SDS011;4786;51.270;4.456;2022-09-12T00:04:55;10.47;;;7.03;;
9496;SDS011;4786;51.270;4.456;2022-09-12T00:07:20;7.90;;;7.20;;
9496;SDS011;4786;51.270;4.456;2022-09-12T00:09:46;8.97;;;6.80;;
9496;SDS011;4786;51.270;4.456;2022-09-12T00:12:12;8.00;;;7.30;;
9496;SDS011;4786;51.270;4.456;2022-09-12T00:14:38;7.90;;;7.20;;
9496;SDS011;4786;51.270;4.456;2022-09-12T00:17:04;7.93;;;7.03;;
9496;SDS011;4786;51.270;4.456;2022-09-12T00:19:30;10.07;;;7.70;;
9496;SDS011;4786;51.270;4.456;2022-09-12T00:21:56;8.60;;;7.67;;
9496;SDS011;4786;51.270;4.456;2022-09-12T00:24:22;8.60;;;7.07;;
9496;SDS011;4786;51.270;4.456;2022-09-12T00:26:48;7.87;;;7.17;;
9496;SDS011;4786;51.270;4.456;2022-09-12T00:29:19;7.87;;;7.00;;
9496;SDS011;4786;51.270;4.456;2022-09-12T00:31:47;8.27;;;7.27;;
9496;SDS011;4786;51.270;4.456;2022-09-12T00:34:13;8.03;;;7.30;;
9496;SDS011;4786;51.270;4.456;2022-09-12T00:36:39;8.17;;;7.47;;
9496;SDS011;4786;51.270;4.456;2022-09-12T00:39:05;8.70;;;7.23;;
9496;SDS011;4786;51.270;4.456;2022-09-12T00:41:34;9.60;;;7.37;;
9496;SDS011;4786;51.270;4.456;2022-09-12T00:44:48;7.80;;;7.10;;
9496;SDS011;4786;51.270;4.456;2022-09-12T00:49:32;8.03;;;7.33;;
9496;SDS011;4786;51.270;4.456;2022-09-12T00:52:09;8.67;;;7.77;;
9496;SDS011;4786;51.270;4.456;2022-09-12T00:54:46;7.77;;;7.07;;
9496;SDS011;4786;51.270;4.456;2022-09-12T00:57:14;8.57;;;7.17;;
9496;SDS011;4786;51.270;4.456;2022-09-12T01:02:13;8.23;;;7.43;;
9496;SDS011;4786;51.270;4.456;2022-09-12T01:04:39;7.20;;;6.70;;
9496;SDS011;4786;51.270;4.456;2022-09-12T01:07:06;9.83;;;7.40;;
9496;SDS011;4786;51.270;4.456;2022-09-12T01:09:33;7.70;;;7.10;;
9496;SDS011;4786;51.270;4.456;2022-09-12T01:12:01;8.30;;;7.60;;
9496;SDS011;4786;51.270;4.456;2022-09-12T01:14:28;7.40;;;6.80;;
9496;SDS011;4786;51.270;4.456;2022-09-12T01:16:55;8.03;;;7.33;;
9496;SDS011;4786;51.270;4.456;2022-09-12T01:27:47;8.73;;;7.93;;
9496;SDS011;4786;51.270;4.456;2022-09-12T01:39:05;8.87;;;8.00;;
9496;SDS011;4786;51.270;4.456;2022-09-12T01:44:48;9.20;;;8.47;;
9496;SDS011;4786;51.270;4.456;2022-09-12T01:47:40;8.80;;;8.10;;
9496;SDS011;4786;51.270;4.456;2022-09-12T01:50:18;9.73;;;8.83;;
9496;SDS011;4786;51.270;4.456;2022-09-12T01:55:22;8.63;;;7.80;;
9496;SDS011;4786;51.270;4.456;2022-09-12T01:58:08;8.97;;;8.07;;
9496;SDS011;4786;51.270;4.456;2022-09-12T02:00:44;10.00;;;8.97;;
9496;SDS011;4786;51.270;4.456;2022-09-12T02:03:15;8.73;;;7.93;;
9496;SDS011;4786;51.270;4.456;2022-09-12T02:05:47;10.87;;;9.10;;
9496;SDS011;4786;51.270;4.456;2022-09-12T02:08:27;9.03;;;8.33;;
9496;SDS011;4786;51.270;4.456;2022-09-12T02:11:02;10.30;;;9.43;;
9496;SDS011;4786;51.270;4.456;2022-09-12T02:19:09;10.03;;;9.17;;
9496;SDS011;4786;51.270;4.456;2022-09-12T02:21:40;11.23;;;10.23;;
9496;SDS011;4786;51.270;4.456;2022-09-12T02:24:19;10.57;;;9.67;;
9496;SDS011;4786;51.270;4.456;2022-09-12T02:26:51;10.97;;;9.90;;
9496;SDS011;4786;51.270;4.456;2022-09-12T02:29:21;10.20;;;9.40;;
9496;SDS011;4786;51.270;4.456;2022-09-12T02:31:48;10.47;;;9.57;;
9496;SDS011;4786;51.270;4.456;2022-09-12T02:39:57;11.00;;;10.00;;
9496;SDS011;4786;51.270;4.456;2022-09-12T02:42:24;11.40;;;10.40;;
9496;SDS011;4786;51.270;4.456;2022-09-12T02:44:50;11.67;;;10.67;;
9496;SDS011;4786;51.270;4.456;2022-09-12T02:47:29;10.63;;;9.73;;
9496;SDS011;4786;51.270;4.456;2022-09-12T02:50:17;11.43;;;10.33;;
9496;SDS011;4786;51.270;4.456;2022-09-12T02:52:43;10.73;;;9.87;;
9496;SDS011;4786;51.270;4.456;2022-09-12T02:55:10;10.27;;;9.07;;
9496;SDS011;4786;51.270;4.456;2022-09-12T02:57:38;9.20;;;8.50;;
9496;SDS011;4786;51.270;4.456;2022-09-12T03:00:05;10.10;;;9.30;;
9496;SDS011;4786;51.270;4.456;2022-09-12T03:05:17;9.97;;;9.10;;
9496;SDS011;4786;51.270;4.456;2022-09-12T03:07:58;11.47;;;10.43;;
9496;SDS011;4786;51.270;4.456;2022-09-12T03:13:24;12.40;;;11.17;;
9496;SDS011;4786;51.270;4.456;2022-09-12T03:16:22;12.07;;;10.97;;
9496;SDS011;4786;51.270;4.456;2022-09-12T03:27:28;13.00;;;11.87;;
9496;SDS011;4786;51.270;4.456;2022-09-12T03:29:59;13.47;;;12.37;;
9496;SDS011;4786;51.270;4.456;2022-09-12T03:32:38;13.20;;;11.90;;
9496;SDS011;4786;51.270;4.456;2022-09-12T03:35:07;13.83;;;12.43;;
9496;SDS011;4786;51.270;4.456;2022-09-12T03:37:34;12.73;;;11.53;;
9496;SDS011;4786;51.270;4.456;2022-09-12T03:40:00;13.53;;;12.23;;
9496;SDS011;4786;51.270;4.456;2022-09-12T03:42:27;14.10;;;12.77;;
9496;SDS011;4786;51.270;4.456;2022-09-12T03:44:53;12.77;;;11.57;;
9496;SDS011;4786;51.270;4.456;2022-09-12T03:47:19;13.40;;;12.10;;
9496;SDS011;4786;51.270;4.456;2022-09-12T03:49:45;13.70;;;12.23;;
9496;SDS011;4786;51.270;4.456;2022-09-12T03:52:11;13.67;;;12.33;;
9496;SDS011;4786;51.270;4.456;2022-09-12T03:54:37;12.10;;;10.90;;
9496;SDS011;4786;51.270;4.456;2022-09-12T03:57:03;12.97;;;11.87;;
9496;SDS011;4786;51.270;4.456;2022-09-12T03:59:29;12.80;;;11.70;;
9496;SDS011;4786;51.270;4.456;2022-09-12T04:01:55;12.47;;;11.20;;
9496;SDS011;4786;51.270;4.456;2022-09-12T04:04:21;12.67;;;11.20;;
9496;SDS011;4786;51.270;4.456;2022-09-12T04:06:47;12.73;;;10.97;;
9496;SDS011;4786;51.270;4.456;2022-09-12T04:09:13;13.53;;;12.23;;
9496;SDS011;4786;51.270;4.456;2022-09-12T04:11:39;13.97;;;12.73;;
9496;SDS011;4786;51.270;4.456;2022-09-12T04:14:05;14.53;;;13.10;;
9496;SDS011;4786;51.270;4.456;2022-09-12T04:16:31;13.77;;;12.50;;
9496;SDS011;4786;51.270;4.456;2022-09-12T04:18:57;14.20;;;12.77;;
9496;SDS011;4786;51.270;4.456;2022-09-12T04:21:23;15.80;;;14.10;;
9496;SDS011;4786;51.270;4.456;2022-09-12T04:23:49;13.17;;;12.03;;
9496;SDS011;4786;51.270;4.456;2022-09-12T04:26:16;16.20;;;12.93;;
9496;SDS011;4786;51.270;4.456;2022-09-12T04:28:43;12.67;;;11.47;;
9496;SDS011;4786;51.270;4.456;2022-09-12T04:31:12;12.77;;;11.47;;
9496;SDS011;4786;51.270;4.456;2022-09-12T04:33:41;12.00;;;10.93;;
9496;SDS011;4786;51.270;4.456;2022-09-12T04:36:10;12.57;;;11.27;;
9496;SDS011;4786;51.270;4.456;2022-09-12T04:38:40;13.30;;;12.03;;
9496;SDS011;4786;51.270;4.456;2022-09-12T04:43:42;13.80;;;12.60;;
9496;SDS011;4786;51.270;4.456;2022-09-12T04:46:10;14.00;;;12.53;;
9496;SDS011;4786;51.270;4.456;2022-09-12T04:48:37;15.07;;;13.40;;
9496;SDS011;4786;51.270;4.456;2022-09-12T04:51:20;14.57;;;13.00;;
9496;SDS011;4786;51.270;4.456;2022-09-12T04:53:51;13.07;;;11.77;;
9496;SDS011;4786;51.270;4.456;2022-09-12T04:56:19;14.57;;;12.70;;
9496;SDS011;4786;51.270;4.456;2022-09-12T04:58:46;13.87;;;12.53;;
9496;SDS011;4786;51.270;4.456;2022-09-12T05:01:13;14.53;;;13.20;;
9496;SDS011;4786;51.270;4.456;2022-09-12T05:03:41;16.30;;;13.77;;
9496;SDS011;4786;51.270;4.456;2022-09-12T05:06:10;14.83;;;13.10;;
9496;SDS011;4786;51.270;4.456;2022-09-12T05:08:38;15.27;;;13.83;;
9496;SDS011;4786;51.270;4.456;2022-09-12T05:11:06;15.30;;;13.80;;
9496;SDS011;4786;51.270;4.456;2022-09-12T05:13:35;14.13;;;12.83;;
9496;SDS011;4786;51.270;4.456;2022-09-12T05:16:02;13.73;;;12.53;;
9496;SDS011;4786;51.270;4.456;2022-09-12T05:18:30;14.83;;;13.43;;
9496;SDS011;4786;51.270;4.456;2022-09-12T05:20:58;13.57;;;12.27;;
9496;SDS011;4786;51.270;4.456;2022-09-12T05:23:25;13.93;;;12.60;;
9496;SDS011;4786;51.270;4.456;2022-09-12T05:25:52;16.63;;;13.30;;
9496;SDS011;4786;51.270;4.456;2022-09-12T05:28:19;16.80;;;13.70;;
9496;SDS011;4786;51.270;4.456;2022-09-12T05:30:47;14.33;;;13.03;;
9496;SDS011;4786;51.270;4.456;2022-09-12T05:33:13;15.40;;;13.63;;
9496;SDS011;4786;51.270;4.456;2022-09-12T05:35:39;14.30;;;12.97;;
9496;SDS011;4786;51.270;4.456;2022-09-12T05:38:06;17.13;;;14.93;;
9496;SDS011;4786;51.270;4.456;2022-09-12T05:40:32;15.30;;;13.77;;
9496;SDS011;4786;51.270;4.456;2022-09-12T05:42:58;13.77;;;12.47;;
9496;SDS011;4786;51.270;4.456;2022-09-12T05:45:25;15.80;;;12.67;;
9496;SDS011;4786;51.270;4.456;2022-09-12T05:47:52;15.43;;;13.83;;
9496;SDS011;4786;51.270;4.456;2022-09-12T05:50:20;15.03;;;13.47;;
9496;SDS011;4786;51.270;4.456;2022-09-12T05:52:46;16.73;;;14.73;;
9496;SDS011;4786;51.270;4.456;2022-09-12T05:55:11;15.27;;;13.67;;
9496;SDS011;4786;51.270;4.456;2022-09-12T05:57:37;16.00;;;14.30;;
9496;SDS011;4786;51.270;4.456;2022-09-12T06:00:03;15.67;;;14.10;;
9496;SDS011;4786;51.270;4.456;2022-09-12T06:02:30;15.60;;;13.70;;
9496;SDS011;4786;51.270;4.456;2022-09-12T06:04:56;16.07;;;14.57;;
9496;SDS011;4786;51.270;4.456;2022-09-12T06:07:22;16.10;;;14.50;;
9496;SDS011;4786;51.270;4.456;2022-09-12T06:09:47;19.83;;;16.67;;
9496;SDS011;4786;51.270;4.456;2022-09-12T06:12:14;16.83;;;15.23;;
9496;SDS011;4786;51.270;4.456;2022-09-12T06:14:39;18.47;;;16.53;;
9496;SDS011;4786;51.270;4.456;2022-09-12T06:17:05;18.60;;;16.43;;
9496;SDS011;4786;51.270;4.456;2022-09-12T06:19:30;19.50;;;17.63;;
9496;SDS011;4786;51.270;4.456;2022-09-12T06:21:56;19.53;;;17.43;;
9496;SDS011;4786;51.270;4.456;2022-09-12T06:24:22;19.03;;;17.10;;
9496;SDS011;4786;51.270;4.456;2022-09-12T06:26:49;19.67;;;16.67;;
9496;SDS011;4786;51.270;4.456;2022-09-12T06:29:16;19.10;;;16.60;;
9496;SDS011;4786;51.270;4.456;2022-09-12T06:31:43;19.53;;;17.57;;
9496;SDS011;4786;51.270;4.456;2022-09-12T06:34:10;16.63;;;14.93;;
9496;SDS011;4786;51.270;4.456;2022-09-12T06:36:39;18.17;;;16.30;;
9496;SDS011;4786;51.270;4.456;2022-09-12T06:39:14;18.43;;;16.53;;
9496;SDS011;4786;51.270;4.456;2022-09-12T06:41:41;18.63;;;16.80;;
9496;SDS011;4786;51.270;4.456;2022-09-12T06:44:12;17.63;;;15.93;;
9496;SDS011;4786;51.270;4.456;2022-09-12T06:46:42;15.97;;;14.57;;
9496;SDS011;4786;51.270;4.456;2022-09-12T06:49:09;17.60;;;15.77;;
9496;SDS011;4786;51.270;4.456;2022-09-12T06:51:35;19.97;;;17.97;;
9496;SDS011;4786;51.270;4.456;2022-09-12T06:54:01;23.13;;;20.67;;
9496;SDS011;4786;51.270;4.456;2022-09-12T06:56:27;24.03;;;19.60;;
9496;SDS011;4786;51.270;4.456;2022-09-12T06:58:56;22.07;;;18.30;;
9496;SDS011;4786;51.270;4.456;2022-09-12T07:01:24;20.50;;;18.50;;
9496;SDS011;4786;51.270;4.456;2022-09-12T07:03:53;21.53;;;19.13;;
9496;SDS011;4786;51.270;4.456;2022-09-12T07:06:24;23.13;;;17.93;;
9496;SDS011;4786;51.270;4.456;2022-09-12T07:08:56;20.40;;;17.13;;
9496;SDS011;4786;51.270;4.456;2022-09-12T07:11:30;18.60;;;16.73;;
9496;SDS011;4786;51.270;4.456;2022-09-12T07:13:58;17.53;;;15.83;;
9496;SDS011;4786;51.270;4.456;2022-09-12T07:16:25;17.13;;;15.43;;
9496;SDS011;4786;51.270;4.456;2022-09-12T07:18:55;19.73;;;16.57;;
9496;SDS011;4786;51.270;4.456;2022-09-12T07:21:23;17.87;;;16.07;;
9496;SDS011;4786;51.270;4.456;2022-09-12T07:23:49;17.27;;;15.67;;
9496;SDS011;4786;51.270;4.456;2022-09-12T07:26:25;17.27;;;15.67;;
9496;SDS011;4786;51.270;4.456;2022-09-12T07:28:53;16.63;;;15.03;;
9496;SDS011;4786;51.270;4.456;2022-09-12T07:31:21;16.83;;;14.77;;
9496;SDS011;4786;51.270;4.456;2022-09-12T07:33:48;17.83;;;15.97;;
9496;SDS011;4786;51.270;4.456;2022-09-12T07:36:16;15.40;;;13.90;;
9496;SDS011;4786;51.270;4.456;2022-09-12T07:38:44;15.63;;;14.17;;
9496;SDS011;4786;51.270;4.456;2022-09-12T07:41:17;15.70;;;14.17;;
9496;SDS011;4786;51.270;4.456;2022-09-12T07:43:45;16.03;;;14.43;;
9496;SDS011;4786;51.270;4.456;2022-09-12T07:46:12;14.87;;;13.47;;
9496;SDS011;4786;51.270;4.456;2022-09-12T07:48:38;14.97;;;12.97;;
9496;SDS011;4786;51.270;4.456;2022-09-12T07:51:05;14.93;;;13.53;;
9496;SDS011;4786;51.270;4.456;2022-09-12T07:53:35;12.83;;;11.60;;
9496;SDS011;4786;51.270;4.456;2022-09-12T07:56:03;14.50;;;12.10;;
9496;SDS011;4786;51.270;4.456;2022-09-12T07:58:31;12.17;;;10.97;;
9496;SDS011;4786;51.270;4.456;2022-09-12T08:03:32;13.70;;;12.40;;
9496;SDS011;4786;51.270;4.456;2022-09-12T08:06:04;13.43;;;12.10;;
9496;SDS011;4786;51.270;4.456;2022-09-12T08:08:31;14.40;;;12.97;;
9496;SDS011;4786;51.270;4.456;2022-09-12T08:11:00;12.50;;;11.27;;
9496;SDS011;4786;51.270;4.456;2022-09-12T08:13:28;12.10;;;10.93;;
9496;SDS011;4786;51.270;4.456;2022-09-12T08:15:57;11.73;;;10.53;;
9496;SDS011;4786;51.270;4.456;2022-09-12T08:18:25;12.50;;;11.30;;
9496;SDS011;4786;51.270;4.456;2022-09-12T08:20:59;9.97;;;9.07;;
9496;SDS011;4786;51.270;4.456;2022-09-12T08:23:26;10.03;;;9.00;;
9496;SDS011;4786;51.270;4.456;2022-09-12T08:25:56;10.70;;;9.57;;
9496;SDS011;4786;51.270;4.456;2022-09-12T08:28:24;11.63;;;10.30;;
9496;SDS011;4786;51.270;4.456;2022-09-12T08:30:50;10.70;;;9.70;;
9496;SDS011;4786;51.270;4.456;2022-09-12T08:33:16;8.17;;;7.47;;
9496;SDS011;4786;51.270;4.456;2022-09-12T08:35:42;9.97;;;8.13;;
9496;SDS011;4786;51.270;4.456;2022-09-12T08:38:08;7.60;;;6.60;;
9496;SDS011;4786;51.270;4.456;2022-09-12T08:40:46;12.03;;;6.33;;
9496;SDS011;4786;51.270;4.456;2022-09-12T08:49:08;7.40;;;5.33;;
9496;SDS011;4786;51.270;4.456;2022-09-12T08:51:37;6.97;;;5.50;;
9496;SDS011;4786;51.270;4.456;2022-09-12T08:54:17;5.80;;;4.50;;
9496;SDS011;4786;51.270;4.456;2022-09-12T08:56:50;5.80;;;5.20;;
9496;SDS011;4786;51.270;4.456;2022-09-12T08:59:22;8.17;;;5.27;;
9496;SDS011;4786;51.270;4.456;2022-09-12T09:01:49;6.53;;;4.67;;
9496;SDS011;4786;51.270;4.456;2022-09-12T09:07:25;5.38;;;3.75;;
9496;SDS011;4786;51.270;4.456;2022-09-12T09:10:21;7.72;;;3.90;;
9496;SDS011;4786;51.270;4.456;2022-09-12T09:12:51;4.68;;;3.90;;
9496;SDS011;4786;51.270;4.456;2022-09-12T09:15:42;4.40;;;4.00;;
9496;SDS011;4786;51.270;4.456;2022-09-12T09:18:42;6.13;;;3.90;;
9496;SDS011;4786;51.270;4.456;2022-09-12T09:21:22;4.32;;;3.78;;
9496;SDS011;4786;51.270;4.456;2022-09-12T09:23:54;4.80;;;3.40;;
9496;SDS011;4786;51.270;4.456;2022-09-12T09:26:33;5.07;;;3.97;;
9496;SDS011;4786;51.270;4.456;2022-09-12T09:29:10;3.70;;;3.00;;
9496;SDS011;4786;51.270;4.456;2022-09-12T09:31:43;3.47;;;2.53;;
9496;SDS011;4786;51.270;4.456;2022-09-12T09:34:22;3.47;;;2.60;;
9496;SDS011;4786;51.270;4.456;2022-09-12T09:42:26;5.63;;;2.67;;
9496;SDS011;4786;51.270;4.456;2022-09-12T09:45:02;2.65;;;2.45;;
9496;SDS011;4786;51.270;4.456;2022-09-12T09:47:37;2.15;;;2.05;;
9496;SDS011;4786;51.270;4.456;2022-09-12T09:50:02;2.35;;;2.15;;
9496;SDS011;4786;51.270;4.456;2022-09-12T09:52:29;6.15;;;2.83;;
9496;SDS011;4786;51.270;4.456;2022-09-12T09:54:57;2.95;;;2.65;;
9496;SDS011;4786;51.270;4.456;2022-09-12T10:03:15;4.18;;;2.50;;
9496;SDS011;4786;51.270;4.456;2022-09-12T10:05:50;2.85;;;2.35;;
9496;SDS011;4786;51.270;4.456;2022-09-12T10:08:19;2.50;;;2.30;;
9496;SDS011;4786;51.270;4.456;2022-09-12T10:10:51;2.83;;;2.53;;
9496;SDS011;4786;51.270;4.456;2022-09-12T10:13:23;2.20;;;2.00;;
9496;SDS011;4786;51.270;4.456;2022-09-12T10:15:55;3.17;;;2.30;;
9496;SDS011;4786;51.270;4.456;2022-09-12T10:18:48;3.90;;;2.85;;
9496;SDS011;4786;51.270;4.456;2022-09-12T10:23:57;5.72;;;2.47;;
9496;SDS011;4786;51.270;4.456;2022-09-12T10:26:24;5.00;;;2.63;;
9496;SDS011;4786;51.270;4.456;2022-09-12T10:28:52;2.95;;;2.70;;
9496;SDS011;4786;51.270;4.456;2022-09-12T10:31:40;2.83;;;2.30;;
9496;SDS011;4786;51.270;4.456;2022-09-12T10:34:18;3.33;;;2.58;;
9496;SDS011;4786;51.270;4.456;2022-09-12T10:39:28;2.72;;;2.40;;
9496;SDS011;4786;51.270;4.456;2022-09-12T10:41:55;3.63;;;2.70;;
9496;SDS011;4786;51.270;4.456;2022-09-12T10:44:25;3.90;;;2.58;;
9496;SDS011;4786;51.270;4.456;2022-09-12T10:46:53;3.97;;;2.38;;
9496;SDS011;4786;51.270;4.456;2022-09-12T10:49:21;2.58;;;2.38;;
9496;SDS011;4786;51.270;4.456;2022-09-12T10:51:48;3.05;;;2.30;;
9496;SDS011;4786;51.270;4.456;2022-09-12T10:54:15;2.30;;;2.10;;
9496;SDS011;4786;51.270;4.456;2022-09-12T11:05:17;3.92;;;2.88;;
9496;SDS011;4786;51.270;4.456;2022-09-12T11:07:46;2.75;;;2.45;;
9496;SDS011;4786;51.270;4.456;2022-09-12T11:21:24;4.13;;;2.83;;
9496;SDS011;4786;51.270;4.456;2022-09-12T11:24:32;2.92;;;2.60;;
9496;SDS011;4786;51.270;4.456;2022-09-12T11:27:34;4.20;;;2.90;;
9496;SDS011;4786;51.270;4.456;2022-09-12T11:30:21;3.80;;;2.90;;
9496;SDS011;4786;51.270;4.456;2022-09-12T11:33:10;4.07;;;2.63;;
9496;SDS011;4786;51.270;4.456;2022-09-12T11:35:56;2.70;;;2.50;;
9496;SDS011;4786;51.270;4.456;2022-09-12T11:41:01;3.10;;;2.55;;
9496;SDS011;4786;51.270;4.456;2022-09-12T11:46:49;4.85;;;2.83;;
9496;SDS011;4786;51.270;4.456;2022-09-12T11:49:17;2.90;;;2.60;;
9496;SDS011;4786;51.270;4.456;2022-09-12T11:51:59;3.25;;;2.53;;
9496;SDS011;4786;51.270;4.456;2022-09-12T11:57:38;2.50;;;2.35;;
9496;SDS011;4786;51.270;4.456;2022-09-12T12:00:27;7.07;;;2.75;;
9496;SDS011;4786;51.270;4.456;2022-09-12T12:03:05;4.32;;;3.00;;
9496;SDS011;4786;51.270;4.456;2022-09-12T12:06:18;2.60;;;2.40;;
9496;SDS011;4786;51.270;4.456;2022-09-12T12:08:37;4.07;;;2.28;;
9496;SDS011;4786;51.270;4.456;2022-09-12T12:11:06;3.67;;;2.72;;
9496;SDS011;4786;51.270;4.456;2022-09-12T12:13:33;2.63;;;2.30;;
9496;SDS011;4786;51.270;4.456;2022-09-12T12:18:38;2.30;;;2.10;;
9496;SDS011;4786;51.270;4.456;2022-09-12T12:47:46;2.00;;;1.90;;
9496;SDS011;4786;51.270;4.456;2022-09-12T12:50:24;2.38;;;1.98;;
9496;SDS011;4786;51.270;4.456;2022-09-12T12:52:53;4.07;;;2.30;;
9496;SDS011;4786;51.270;4.456;2022-09-12T12:55:50;4.53;;;2.38;;
9496;SDS011;4786;51.270;4.456;2022-09-12T12:58:35;2.65;;;2.20;;
9496;SDS011;4786;51.270;4.456;2022-09-12T13:01:04;2.40;;;2.20;;
9496;SDS011;4786;51.270;4.456;2022-09-12T13:03:33;6.55;;;1.92;;
9496;SDS011;4786;51.270;4.456;2022-09-12T13:06:02;2.38;;;1.90;;
9496;SDS011;4786;51.270;4.456;2022-09-12T13:09:17;5.20;;;2.17;;
9496;SDS011;4786;51.270;4.456;2022-09-12T13:11:30;3.03;;;1.98;;
9496;SDS011;4786;51.270;4.456;2022-09-12T13:14:08;5.13;;;2.15;;
9496;SDS011;4786;51.270;4.456;2022-09-12T13:16:55;2.67;;;2.40;;
9496;SDS011;4786;51.270;4.456;2022-09-12T13:19:28;5.82;;;2.40;;
9496;SDS011;4786;51.270;4.456;2022-09-12T13:22:03;3.60;;;2.00;;
9496;SDS011;4786;51.270;4.456;2022-09-12T13:24:31;2.47;;;2.00;;
9496;SDS011;4786;51.270;4.456;2022-09-12T13:26:57;1.98;;;1.88;;
9496;SDS011;4786;51.270;4.456;2022-09-12T13:29:24;2.55;;;1.92;;
9496;SDS011;4786;51.270;4.456;2022-09-12T13:32:00;2.10;;;1.90;;
9496;SDS011;4786;51.270;4.456;2022-09-12T13:34:30;3.05;;;1.80;;
9496;SDS011;4786;51.270;4.456;2022-09-12T13:37:13;2.25;;;1.90;;
9496;SDS011;4786;51.270;4.456;2022-09-12T13:39:49;6.63;;;2.33;;
9496;SDS011;4786;51.270;4.456;2022-09-12T13:47:43;1.95;;;1.83;;
9496;SDS011;4786;51.270;4.456;2022-09-12T13:50:13;2.08;;;1.98;;
9496;SDS011;4786;51.270;4.456;2022-09-12T13:52:52;3.67;;;1.80;;
9496;SDS011;4786;51.270;4.456;2022-09-12T13:55:26;2.30;;;2.10;;
9496;SDS011;4786;51.270;4.456;2022-09-12T13:58:00;2.13;;;1.95;;
9496;SDS011;4786;51.270;4.456;2022-09-12T14:00:58;2.58;;;2.30;;
9496;SDS011;4786;51.270;4.456;2022-09-12T14:03:29;2.55;;;1.98;;
9496;SDS011;4786;51.270;4.456;2022-09-12T14:06:15;2.13;;;1.92;;
9496;SDS011;4786;51.270;4.456;2022-09-12T14:08:43;4.80;;;2.20;;
9496;SDS011;4786;51.270;4.456;2022-09-12T14:11:22;4.45;;;2.20;;
9496;SDS011;4786;51.270;4.456;2022-09-12T14:13:51;2.13;;;1.92;;
9496;SDS011;4786;51.270;4.456;2022-09-12T14:16:19;2.75;;;2.17;;
9496;SDS011;4786;51.270;4.456;2022-09-12T14:18:47;4.72;;;2.13;;
9496;SDS011;4786;51.270;4.456;2022-09-12T14:23:57;2.30;;;2.10;;
9496;SDS011;4786;51.270;4.456;2022-09-12T14:26:24;1.90;;;1.80;;
9496;SDS011;4786;51.270;4.456;2022-09-12T14:28:52;2.92;;;1.83;;
9496;SDS011;4786;51.270;4.456;2022-09-12T14:31:23;2.83;;;1.77;;
9496;SDS011;4786;51.270;4.456;2022-09-12T14:33:55;1.90;;;1.80;;
9496;SDS011;4786;51.270;4.456;2022-09-12T14:36:54;2.75;;;1.70;;
9496;SDS011;4786;51.270;4.456;2022-09-12T14:39:40;2.83;;;1.90;;
9496;SDS011;4786;51.270;4.456;2022-09-12T14:44:50;1.85;;;1.70;;
9496;SDS011;4786;51.270;4.456;2022-09-12T14:47:21;2.05;;;1.92;;
9496;SDS011;4786;51.270;4.456;2022-09-12T14:49:49;2.70;;;1.63;;
9496;SDS011;4786;51.270;4.456;2022-09-12T14:52:35;3.25;;;2.45;;
9496;SDS011;4786;51.270;4.456;2022-09-12T14:57:43;2.35;;;1.73;;
9496;SDS011;4786;51.270;4.456;2022-09-12T15:02:50;3.03;;;1.55;;
9496;SDS011;4786;51.270;4.456;2022-09-12T15:05:18;2.10;;;1.90;;
9496;SDS011;4786;51.270;4.456;2022-09-12T15:08:00;2.30;;;1.90;;
9496;SDS011;4786;51.270;4.456;2022-09-12T15:15:29;2.30;;;2.10;;
9496;SDS011;4786;51.270;4.456;2022-09-12T15:17:56;5.88;;;2.45;;
9496;SDS011;4786;51.270;4.456;2022-09-12T15:20:21;2.40;;;2.20;;
9496;SDS011;4786;51.270;4.456;2022-09-12T15:22:48;6.15;;;2.22;;
9496;SDS011;4786;51.270;4.456;2022-09-12T15:25:14;6.10;;;2.50;;
9496;SDS011;4786;51.270;4.456;2022-09-12T15:27:40;3.50;;;2.17;;
9496;SDS011;4786;51.270;4.456;2022-09-12T15:30:10;3.40;;;2.20;;
9496;SDS011;4786;51.270;4.456;2022-09-12T15:32:37;2.53;;;2.10;;
9496;SDS011;4786;51.270;4.456;2022-09-12T15:35:21;1.70;;;1.60;;
9496;SDS011;4786;51.270;4.456;2022-09-12T15:37:49;2.00;;;1.80;;
9496;SDS011;4786;51.270;4.456;2022-09-12T15:40:15;2.25;;;2.00;;
9496;SDS011;4786;51.270;4.456;2022-09-12T15:42:42;5.00;;;2.10;;
9496;SDS011;4786;51.270;4.456;2022-09-12T15:47:42;2.83;;;2.13;;
9496;SDS011;4786;51.270;4.456;2022-09-12T15:50:08;3.30;;;1.92;;
9496;SDS011;4786;51.270;4.456;2022-09-12T15:52:35;2.05;;;1.88;;
9496;SDS011;4786;51.270;4.456;2022-09-12T15:55:01;2.65;;;1.98;;
9496;SDS011;4786;51.270;4.456;2022-09-12T15:57:28;2.70;;;2.00;;
9496;SDS011;4786;51.270;4.456;2022-09-12T15:59:54;2.40;;;2.20;;
9496;SDS011;4786;51.270;4.456;2022-09-12T16:02:20;2.67;;;2.15;;
9496;SDS011;4786;51.270;4.456;2022-09-12T16:04:45;7.35;;;2.08;;
9496;SDS011;4786;51.270;4.456;2022-09-12T16:07:12;3.72;;;1.95;;
9496;SDS011;4786;51.270;4.456;2022-09-12T16:09:37;3.88;;;2.25;;
9496;SDS011;4786;51.270;4.456;2022-09-12T16:12:04;2.70;;;2.08;;
9496;SDS011;4786;51.270;4.456;2022-09-12T16:14:30;3.58;;;2.25;;
9496;SDS011;4786;51.270;4.456;2022-09-12T16:16:56;3.33;;;2.10;;
9496;SDS011;4786;51.270;4.456;2022-09-12T16:19:22;3.42;;;2.20;;
9496;SDS011;4786;51.270;4.456;2022-09-12T16:21:48;2.08;;;1.88;;
9496;SDS011;4786;51.270;4.456;2022-09-12T16:24:14;1.92;;;1.83;;
9496;SDS011;4786;51.270;4.456;2022-09-12T16:26:40;2.80;;;1.77;;
9496;SDS011;4786;51.270;4.456;2022-09-12T16:29:07;5.28;;;2.30;;
9496;SDS011;4786;51.270;4.456;2022-09-12T16:31:35;3.15;;;2.28;;
9496;SDS011;4786;51.270;4.456;2022-09-12T16:34:03;2.13;;;1.80;;
9496;SDS011;4786;51.270;4.456;2022-09-12T16:36:28;2.08;;;1.88;;
9496;SDS011;4786;51.270;4.456;2022-09-12T16:38:55;2.35;;;2.10;;
9496;SDS011;4786;51.270;4.456;2022-09-12T16:41:22;2.67;;;1.83;;
9496;SDS011;4786;51.270;4.456;2022-09-12T16:43:51;4.88;;;2.20;;
9496;SDS011;4786;51.270;4.456;2022-09-12T16:46:19;2.72;;;1.90;;
9496;SDS011;4786;51.270;4.456;2022-09-12T16:48:50;2.13;;;1.90;;
9496;SDS011;4786;51.270;4.456;2022-09-12T16:51:18;3.90;;;2.20;;
9496;SDS011;4786;51.270;4.456;2022-09-12T16:53:46;2.85;;;1.90;;
9496;SDS011;4786;51.270;4.456;2022-09-12T16:56:12;2.00;;;1.80;;
9496;SDS011;4786;51.270;4.456;2022-09-12T16:58:39;3.47;;;2.10;;
9496;SDS011;4786;51.270;4.456;2022-09-12T17:01:06;1.70;;;1.58;;
9496;SDS011;4786;51.270;4.456;2022-09-12T17:03:34;2.75;;;1.88;;
9496;SDS011;4786;51.270;4.456;2022-09-12T17:06:01;1.90;;;1.70;;
9496;SDS011;4786;51.270;4.456;2022-09-12T17:08:29;2.28;;;1.95;;
9496;SDS011;4786;51.270;4.456;2022-09-12T17:11:07;2.58;;;1.83;;
9496;SDS011;4786;51.270;4.456;2022-09-12T17:13:35;3.78;;;2.00;;
9496;SDS011;4786;51.270;4.456;2022-09-12T17:16:06;2.10;;;1.90;;
9496;SDS011;4786;51.270;4.456;2022-09-12T17:18:34;2.40;;;2.20;;
9496;SDS011;4786;51.270;4.456;2022-09-12T17:21:00;2.03;;;1.85;;
9496;SDS011;4786;51.270;4.456;2022-09-12T17:23:26;2.65;;;2.03;;
9496;SDS011;4786;51.270;4.456;2022-09-12T17:25:52;4.00;;;2.20;;
9496;SDS011;4786;51.270;4.456;2022-09-12T17:28:19;2.28;;;2.08;;
9496;SDS011;4786;51.270;4.456;2022-09-12T17:30:45;2.35;;;2.15;;
9496;SDS011;4786;51.270;4.456;2022-09-12T17:33:11;2.13;;;1.90;;
9496;SDS011;4786;51.270;4.456;2022-09-12T17:35:38;2.47;;;1.70;;
9496;SDS011;4786;51.270;4.456;2022-09-12T17:38:06;1.98;;;1.77;;
9496;SDS011;4786;51.270;4.456;2022-09-12T17:40:33;2.15;;;1.90;;
9496;SDS011;4786;51.270;4.456;2022-09-12T17:42:59;2.97;;;2.00;;
9496;SDS011;4786;51.270;4.456;2022-09-12T17:45:26;2.60;;;1.88;;
9496;SDS011;4786;51.270;4.456;2022-09-12T17:47:53;2.15;;;1.90;;
9496;SDS011;4786;51.270;4.456;2022-09-12T17:50:18;3.00;;;2.20;;
9496;SDS011;4786;51.270;4.456;2022-09-12T17:52:45;2.28;;;1.83;;
9496;SDS011;4786;51.270;4.456;2022-09-12T17:55:11;4.03;;;2.13;;
9496;SDS011;4786;51.270;4.456;2022-09-12T17:57:37;2.67;;;2.35;;
9496;SDS011;4786;51.270;4.456;2022-09-12T18:00:04;3.90;;;2.40;;
9496;SDS011;4786;51.270;4.456;2022-09-12T18:02:30;2.75;;;1.80;;
9496;SDS011;4786;51.270;4.456;2022-09-12T18:04:56;2.55;;;2.00;;
9496;SDS011;4786;51.270;4.456;2022-09-12T18:07:23;5.63;;;2.65;;
9496;SDS011;4786;51.270;4.456;2022-09-12T18:09:49;2.35;;;2.13;;